createdAt,value
2022-11-12T00:00:19.104Z,25.02
2022-11-12T00:05:21.679Z,26.35
2022-11-12T00:10:24.330Z,21.83
2022-11-12T00:15:28.440Z,19.02
2022-11-12T00:20:30.811Z,20.35
2022-11-12T00:25:33.229Z,22.95
2022-11-12T00:30:38.826Z,22.17
2022-11-12T00:35:41.177Z,23.08
2022-11-12T00:40:43.564Z,26.83
2022-11-12T00:45:47.233Z,28.08
2022-11-12T00:55:51.793Z,19.23
2022-11-12T01:00:55.522Z,21.95
2022-11-12T01:06:02.296Z,25.23
2022-11-12T01:11:08.677Z,30.00
2022-11-12T01:16:13.437Z,27.63
2022-11-12T01:21:15.784Z,26.80
2022-11-12T01:26:20.005Z,27.17
2022-11-12T01:31:24.545Z,26.92
2022-11-12T01:36:27.589Z,26.45
2022-11-12T01:41:31.081Z,26.50
2022-11-12T01:46:35.955Z,21.55
2022-11-12T01:51:39.575Z,28.30
2022-11-12T02:01:46.371Z,22.70
2022-11-12T02:06:49.452Z,25.23
2022-11-12T02:11:51.799Z,26.75
2022-11-12T02:16:55.476Z,29.23
2022-11-12T02:27:01.620Z,29.27
2022-11-12T02:32:03.960Z,27.40
2022-11-12T02:37:06.475Z,26.45
2022-11-12T02:42:10.154Z,28.55
2022-11-12T02:47:12.536Z,22.17
2022-11-12T02:52:14.895Z,27.58
2022-11-12T02:57:18.610Z,24.40
2022-11-12T03:02:20.985Z,24.95
2022-11-12T03:07:23.348Z,26.70
2022-11-12T03:12:27.087Z,28.50
2022-11-12T03:17:29.430Z,31.77
2022-11-12T03:22:31.818Z,28.65
2022-11-12T03:27:35.610Z,27.92
2022-11-12T03:32:37.942Z,30.02
2022-11-12T03:37:40.266Z,27.67
2022-11-12T03:42:47.720Z,29.02
2022-11-12T03:47:50.572Z,27.92
2022-11-12T03:52:53.665Z,31.47
2022-11-12T03:57:58.048Z,25.77
2022-11-12T04:03:00.581Z,26.40
2022-11-12T04:08:21.626Z,22.85
2022-11-12T04:13:31.020Z,20.00
2022-11-12T04:18:51.098Z,22.52
2022-11-12T04:23:53.441Z,23.05
2022-11-12T04:29:14.610Z,23.85
2022-11-12T04:34:31.884Z,27.38
2022-11-12T04:39:34.251Z,29.13
2022-11-12T04:44:55.663Z,28.67
2022-11-12T04:49:58.308Z,22.88
2022-11-12T04:55:00.940Z,26.13
2022-11-12T05:00:05.306Z,24.83
2022-11-12T05:05:08.063Z,27.42
2022-11-12T05:10:10.813Z,29.30
2022-11-12T05:15:14.464Z,23.33
2022-11-12T05:25:19.030Z,20.35
2022-11-12T05:30:22.730Z,24.13
2022-11-12T05:35:25.066Z,21.65
2022-11-12T05:40:27.406Z,21.88
2022-11-12T05:45:31.081Z,23.15
2022-11-12T05:55:53.978Z,26.70
2022-11-12T06:00:57.690Z,29.02
2022-11-12T06:06:00.189Z,27.95
2022-11-12T06:11:02.537Z,24.67
2022-11-12T06:16:06.497Z,22.58
2022-11-12T06:21:22.420Z,25.25
2022-11-12T06:26:25.453Z,23.05
2022-11-12T06:31:29.155Z,20.30
2022-11-12T06:41:33.753Z,24.55
2022-11-12T06:46:37.436Z,23.15
2022-11-12T06:51:40.132Z,25.35
2022-11-12T06:56:42.518Z,23.70
2022-11-12T07:01:46.351Z,27.48
2022-11-12T07:06:48.837Z,26.83
2022-11-12T07:11:51.215Z,24.15
2022-11-12T07:16:54.918Z,27.23
2022-11-12T07:21:57.259Z,25.45
2022-11-12T07:26:59.631Z,32.25
2022-11-12T07:32:03.312Z,28.20
2022-11-12T07:42:07.987Z,30.73
2022-11-12T07:47:11.942Z,45.58
2022-11-12T07:52:14.332Z,34.28
2022-11-12T07:57:16.664Z,17.65
2022-11-12T08:02:20.457Z,11.30
2022-11-12T08:07:22.838Z,9.02
2022-11-12T08:12:25.306Z,12.35
2022-11-12T08:17:29.320Z,8.80
2022-11-12T08:22:32.245Z,11.15
2022-11-12T08:27:34.882Z,9.48
2022-11-12T08:32:38.597Z,10.00
2022-11-12T08:37:40.961Z,9.35
2022-11-12T08:42:43.336Z,7.15
2022-11-12T08:47:47.086Z,9.33
2022-11-12T08:52:49.547Z,9.27
2022-11-12T08:57:51.905Z,8.60
2022-11-12T09:02:55.627Z,8.90
2022-11-12T09:07:58.776Z,6.90
2022-11-12T09:18:06.355Z,9.05
2022-11-12T09:23:09.948Z,9.38
2022-11-12T09:28:13.354Z,7.05
2022-11-12T09:33:17.707Z,7.47
2022-11-12T09:38:20.702Z,8.48
2022-11-12T09:48:30.327Z,7.68
2022-11-12T09:53:34.221Z,8.15
2022-11-12T09:58:37.276Z,8.02
2022-11-12T10:08:51.088Z,9.32
2022-11-12T10:13:59.075Z,8.07
2022-11-12T10:19:06.388Z,7.63
2022-11-12T10:24:11.053Z,7.00
2022-11-12T10:29:15.143Z,8.82
2022-11-12T10:34:18.593Z,8.93
2022-11-12T10:39:35.358Z,9.15
2022-11-12T10:44:37.900Z,8.98
2022-11-12T10:49:40.268Z,7.30
2022-11-12T10:54:44.007Z,6.38
2022-11-12T10:59:46.361Z,8.95
2022-11-12T11:04:48.757Z,10.90
2022-11-12T11:09:55.974Z,8.18
2022-11-12T11:15:08.427Z,7.57
2022-11-12T11:20:16.795Z,7.30
2022-11-12T11:25:27.175Z,8.18
2022-11-12T11:30:29.577Z,12.18
2022-11-12T11:35:38.403Z,8.05
2022-11-12T11:40:47.239Z,13.30
2022-11-12T11:46:04.054Z,10.95
2022-11-12T11:51:11.484Z,13.57
2022-11-12T11:56:19.481Z,17.67
2022-11-12T12:01:26.263Z,8.93
2022-11-12T12:06:29.616Z,11.48
2022-11-12T12:11:36.622Z,6.53
2022-11-12T12:16:44.606Z,7.45
2022-11-12T12:21:49.766Z,7.50
2022-11-12T12:26:55.897Z,5.95
2022-11-12T12:32:02.473Z,7.30
2022-11-12T12:37:06.017Z,8.98
2022-11-12T12:42:15.591Z,7.32
2022-11-12T12:47:19.571Z,6.82
2022-11-12T12:52:21.989Z,9.38
2022-11-12T12:57:32.832Z,5.30
2022-11-12T13:02:38.204Z,6.05
2022-11-12T13:07:42.865Z,6.38
2022-11-12T13:13:06.653Z,8.13
2022-11-12T13:18:15.862Z,8.23
2022-11-12T13:23:58.187Z,5.30
2022-11-12T13:29:18.361Z,7.05
2022-11-12T13:34:26.008Z,7.22
2022-11-12T13:39:29.286Z,7.70
2022-11-12T13:44:32.176Z,8.90
2022-11-12T13:54:38.863Z,8.65
2022-11-12T13:59:41.229Z,12.65
2022-11-12T14:04:44.614Z,12.55
2022-11-12T14:09:55.343Z,6.97
2022-11-12T14:15:09.215Z,6.05
2022-11-12T14:20:24.920Z,7.70
2022-11-12T14:25:29.297Z,8.45
2022-11-12T14:30:32.496Z,11.73
2022-11-12T14:40:39.647Z,12.30
2022-11-12T14:45:47.990Z,11.45
2022-11-12T14:50:52.189Z,14.27
2022-11-12T14:55:57.281Z,9.55
2022-11-12T15:00:59.930Z,9.18
2022-11-12T15:06:09.380Z,13.25
2022-11-12T15:11:25.744Z,12.65
2022-11-12T15:16:29.374Z,14.60
2022-11-12T15:21:31.812Z,13.98
2022-11-12T15:26:36.993Z,13.53
2022-11-12T15:31:44.129Z,13.88
2022-11-12T15:36:47.560Z,14.95
2022-11-12T15:41:57.141Z,13.50
2022-11-12T15:46:59.863Z,14.77
2022-11-12T15:52:02.215Z,14.07
2022-11-12T15:57:06.029Z,16.67
2022-11-12T16:02:10.719Z,17.67
2022-11-12T16:07:13.155Z,20.13
2022-11-12T16:12:16.843Z,15.95
2022-11-12T16:17:19.490Z,16.90
2022-11-12T16:22:21.859Z,19.60
2022-11-12T16:27:25.933Z,19.55
2022-11-12T16:32:28.308Z,21.95
2022-11-12T16:37:31.158Z,20.58
2022-11-12T16:42:34.908Z,20.40
2022-11-12T16:47:43.517Z,23.30
2022-11-12T16:52:45.905Z,23.30
2022-11-12T16:57:49.579Z,20.33
2022-11-12T17:02:53.586Z,20.85
2022-11-12T17:07:56.727Z,23.30
2022-11-12T17:13:00.543Z,21.33
2022-11-12T17:18:03.277Z,23.88
2022-11-12T17:23:05.671Z,25.03
2022-11-12T17:28:09.445Z,29.40
2022-11-12T17:33:11.828Z,25.02
2022-11-12T17:38:15.450Z,24.65
2022-11-12T17:43:20.211Z,22.58
2022-11-12T17:48:22.818Z,26.25
2022-11-12T17:53:25.483Z,26.13
2022-11-12T17:58:31.540Z,27.80
2022-11-12T18:03:35.182Z,41.17
2022-11-12T18:08:37.554Z,37.80
2022-11-12T18:13:41.773Z,35.63
2022-11-12T18:18:44.386Z,35.40
2022-11-12T18:23:46.787Z,32.87
2022-11-12T18:28:52.750Z,51.15
2022-11-12T18:33:55.706Z,42.83
2022-11-12T18:38:58.065Z,48.58
2022-11-12T18:44:02.016Z,45.90
2022-11-12T18:49:04.455Z,43.53
2022-11-12T18:54:06.993Z,46.03
2022-11-12T18:59:11.595Z,38.05
2022-11-12T19:04:13.978Z,41.60
2022-11-12T19:09:16.386Z,41.85
2022-11-12T19:14:20.110Z,42.13
2022-11-12T19:19:22.521Z,41.85
2022-11-12T19:24:24.870Z,40.28
2022-11-12T19:29:28.552Z,38.40
2022-11-12T19:34:30.926Z,36.65
2022-11-12T19:39:33.300Z,36.50
2022-11-12T19:44:37.027Z,32.72
2022-11-12T19:49:39.408Z,34.13
2022-11-12T19:54:41.776Z,27.58
2022-11-12T19:59:45.518Z,34.25
2022-11-12T20:04:47.909Z,32.35
2022-11-12T20:09:50.294Z,37.03
2022-11-12T20:14:54.042Z,34.38
2022-11-12T20:19:56.418Z,32.08
2022-11-12T20:24:58.815Z,39.35
2022-11-12T20:30:02.533Z,37.42
2022-11-12T20:35:10.436Z,38.90
2022-11-12T20:40:17.810Z,48.28
2022-11-12T20:45:21.553Z,58.17
2022-11-12T20:50:24.070Z,49.20
2022-11-12T20:55:26.604Z,45.03
2022-11-12T21:00:30.370Z,49.88
2022-11-12T21:05:33.040Z,48.40
2022-11-12T21:10:35.406Z,69.50
2022-11-12T21:15:39.105Z,56.78
2022-11-12T21:20:41.709Z,65.93
2022-11-12T21:25:44.129Z,59.45
2022-11-12T21:30:47.922Z,57.15
2022-11-12T21:35:52.441Z,69.53
2022-11-12T21:41:02.033Z,81.60
2022-11-12T21:46:07.573Z,68.60
2022-11-12T21:51:11.033Z,51.53
2022-11-12T21:56:14.418Z,57.30
2022-11-12T22:01:19.905Z,51.35
2022-11-12T22:06:23.231Z,42.25
2022-11-12T22:11:26.079Z,38.33
2022-11-12T22:16:30.219Z,40.87
2022-11-12T22:21:39.527Z,36.38
2022-11-12T22:26:42.379Z,39.28
2022-11-12T22:31:46.104Z,40.08
2022-11-12T22:36:48.648Z,45.08
2022-11-12T22:41:51.051Z,37.05
2022-11-12T22:46:54.729Z,40.38
2022-11-12T22:51:57.098Z,39.28
2022-11-12T22:56:59.464Z,48.88
2022-11-12T23:02:03.165Z,44.88
2022-11-12T23:07:05.581Z,45.03
2022-11-12T23:12:08.039Z,40.53
2022-11-12T23:17:11.769Z,40.42
2022-11-12T23:22:14.219Z,43.30
2022-11-12T23:27:16.625Z,38.38
2022-11-12T23:32:20.342Z,41.53
2022-11-12T23:37:22.735Z,40.42
2022-11-12T23:42:25.068Z,34.35
2022-11-12T23:47:28.738Z,33.78
2022-11-12T23:52:31.123Z,39.38
2022-11-12T23:57:33.905Z,39.05
